Time;durP1;ratioP1;P1;durP2;ratioP2;P2;SDS_P1;SDS_P2;PMS_P1;PMS_P2;Temp;Humidity;BMP_temperature;BMP_pressure;BME280_temperature;BME280_humidity;BME280_pressure;Samples;Min_cycle;Max_cycle;Signal;HPM_P1;HPM_P2
2021/10/31 00:00:45;;;;;;;;;11.50;11.50;;;;;13.46;66.65;100229.91;5080006;27;45220;-63
2021/10/31 00:03:11;;;;;;;;;14.50;12.00;;;;;13.43;66.69;100227.34;5079895;27;45597;-62
2021/10/31 00:05:36;;;;;;;;;16.75;14.00;;;;;13.42;66.31;100223.00;5080017;27;45270;-62
2021/10/31 00:08:02;;;;;;;;;13.50;13.50;;;;;13.32;66.71;100209.25;5080068;27;45668;-63
2021/10/31 00:10:28;;;;;;;;;11.75;11.75;;;;;13.37;66.30;100219.63;5080163;27;45202;-62
2021/10/31 00:12:53;;;;;;;;;11.25;11.00;;;;;13.33;66.68;100224.13;5079565;27;45279;-62
2021/10/31 00:15:18;;;;;;;;;12.75;12.75;;;;;13.32;66.42;100222.44;5079813;27;45284;-63
2021/10/31 00:17:44;;;;;;;;;15.00;13.25;;;;;13.31;66.73;100223.34;5079895;27;45206;-62
2021/10/31 00:20:10;;;;;;;;;9.50;9.50;;;;;13.29;66.73;100217.25;5080045;27;45227;-63
2021/10/31 00:22:35;;;;;;;;;13.25;11.00;;;;;13.28;67.00;100211.13;5079647;27;46309;-62
2021/10/31 00:25:01;;;;;;;;;11.75;11.75;;;;;13.30;66.52;100213.69;5083927;27;45299;-62
2021/10/31 00:27:27;;;;;;;;;16.00;13.25;;;;;13.28;66.70;100218.16;5083910;27;45551;-62
2021/10/31 00:29:52;;;;;;;;;13.00;12.50;;;;;13.26;66.54;100218.22;5078284;28;45548;-62
2021/10/31 00:32:18;;;;;;;;;15.75;13.50;;;;;13.25;66.80;100220.91;5079568;27;45302;-62
2021/10/31 00:34:43;;;;;;;;;13.00;11.00;;;;;13.25;66.72;100220.91;5079805;28;45376;-62
2021/10/31 00:37:08;;;;;;;;;12.75;11.75;;;;;13.23;66.50;100220.97;5079779;27;45374;-62
2021/10/31 00:39:34;;;;;;;;;13.50;12.25;;;;;13.22;66.48;100218.34;5079635;27;45442;-62
2021/10/31 00:41:59;;;;;;;;;11.75;11.75;;;;;13.21;66.49;100216.66;5078165;28;45394;-62
2021/10/31 00:44:25;;;;;;;;;13.25;11.75;;;;;13.19;66.72;100218.47;5079617;27;45224;-63
2021/10/31 00:46:50;;;;;;;;;16.75;12.75;;;;;13.17;66.81;100221.16;5085148;27;45273;-62
2021/10/31 00:49:16;;;;;;;;;16.00;12.50;;;;;13.15;66.76;100218.56;5094880;27;45159;-62
2021/10/31 00:51:41;;;;;;;;;15.25;12.00;;;;;13.17;66.81;100213.25;5082874;27;47116;-62
2021/10/31 00:54:07;;;;;;;;;15.50;15.00;;;;;13.17;66.82;100215.91;5082931;27;45216;-63
2021/10/31 00:56:34;;;;;;;;;15.75;14.25;;;;;13.14;66.60;100213.34;5082972;27;45227;-63
2021/10/31 00:59:00;;;;;;;;;14.00;13.50;;;;;13.14;66.81;100208.94;5082873;27;45346;-63
2021/10/31 01:01:27;;;;;;;;;11.75;11.75;;;;;13.16;66.76;100215.00;5082446;27;45318;-63
2021/10/31 01:03:54;;;;;;;;;9.25;9.25;;;;;13.17;66.31;100218.53;5082829;27;45337;-62
2021/10/31 01:06:29;;;;;;;;;12.00;12.00;;;;;13.16;66.72;100222.06;5082835;27;45180;-62
2021/10/31 01:09:20;;;;;;;;;16.00;14.50;;;;;13.14;66.63;100214.22;5082767;27;45387;-62
2021/10/31 01:12:02;;;;;;;;;12.75;12.25;;;;;13.14;66.41;100215.97;5089970;27;45353;-62
2021/10/31 01:14:54;;;;;;;;;14.25;14.00;;;;;13.12;66.40;100212.53;5102847;27;45255;-62
2021/10/31 01:17:58;;;;;;;;;16.00;14.50;;;;;13.11;66.41;100213.44;5103177;27;45346;-62
2021/10/31 01:20:40;;;;;;;;;13.25;13.00;;;;;13.07;66.38;100204.78;5051289;27;45562;-62
2021/10/31 01:23:36;;;;;;;;;15.50;12.25;;;;;13.07;66.53;100206.53;5102936;27;46172;-62
2021/10/31 01:26:39;;;;;;;;;12.75;12.75;;;;;13.03;66.55;100208.44;5096542;27;46049;-62
2021/10/31 01:29:38;;;;;;;;;12.50;12.50;;;;;12.99;66.49;100202.41;5082126;27;45427;-62
2021/10/31 01:32:37;;;;;;;;;10.75;10.75;;;;;12.97;66.45;100204.22;5080904;27;45289;-62
2021/10/31 01:35:12;;;;;;;;;11.75;10.00;;;;;12.96;66.51;100210.38;5082219;27;45409;-62
2021/10/31 01:38:05;;;;;;;;;13.75;11.00;;;;;12.95;66.25;100198.09;5089385;27;45207;-62
2021/10/31 01:40:43;;;;;;;;;11.25;10.00;;;;;12.96;66.48;100199.00;5102681;27;45235;-62
2021/10/31 01:43:29;;;;;;;;;10.50;10.25;;;;;12.95;66.02;100190.19;5102492;27;45245;-64
2021/10/31 01:46:01;;;;;;;;;12.25;12.25;;;;;12.95;66.58;100179.66;5102396;27;45342;-62
2021/10/31 01:48:33;;;;;;;;;13.00;13.00;;;;;12.94;66.38;100174.44;5100436;27;45227;-62
2021/10/31 01:51:02;;;;;;;;;13.00;12.00;;;;;12.93;66.37;100168.31;5082331;27;45344;-62
2021/10/31 01:53:54;;;;;;;;;12.25;12.00;;;;;12.94;66.35;100171.78;5081911;27;45232;-62
2021/10/31 01:56:22;;;;;;;;;11.25;11.25;;;;;12.93;66.09;100168.31;5081765;28;47368;-63
2021/10/31 01:58:56;;;;;;;;;14.00;12.50;;;;;12.93;66.01;100168.31;5088922;27;45246;-62
2021/10/31 02:01:26;;;;;;;;;13.75;10.25;;;;;12.90;66.13;100168.41;5102197;27;45385;-62
2021/10/31 02:03:53;;;;;;;;;12.00;12.00;;;;;12.90;66.08;100157.84;5084220;27;45269;-63
2021/10/31 02:06:20;;;;;;;;;12.75;11.50;;;;;12.87;66.16;100155.31;5100721;27;46988;-63
2021/10/31 02:08:48;;;;;;;;;13.25;12.00;;;;;12.89;66.30;100161.38;5102198;27;45189;-63
2021/10/31 02:11:16;;;;;;;;;12.00;11.25;;;;;12.86;66.29;100161.50;5102189;27;45223;-63
2021/10/31 02:13:44;;;;;;;;;13.75;11.75;;;;;12.78;66.11;100145.94;5101996;27;45431;-62
2021/10/31 02:16:14;;;;;;;;;12.25;12.25;;;;;12.86;66.21;100155.38;5101457;27;46228;-62
2021/10/31 02:18:40;;;;;;;;;11.25;11.25;;;;;12.85;66.31;100162.41;5102213;27;45286;-63
2021/10/31 02:21:06;;;;;;;;;12.50;11.50;;;;;12.79;66.26;100150.31;5101992;27;45414;-63
2021/10/31 02:23:33;;;;;;;;;14.00;10.50;;;;;12.82;65.98;100159.88;5101754;27;45311;-63
2021/10/31 02:25:58;;;;;;;;;10.75;10.00;;;;;12.83;66.01;100164.25;5098446;27;46112;-63
2021/10/31 02:28:24;;;;;;;;;9.25;9.25;;;;;12.79;65.92;100160.84;5081358;27;45448;-63
2021/10/31 02:30:51;;;;;;;;;10.00;10.00;;;;;12.81;66.06;100151.09;5081179;27;45345;-62
2021/10/31 02:33:17;;;;;;;;;10.25;8.00;;;;;12.80;66.18;100151.16;5080286;28;45461;-62
2021/10/31 02:35:42;;;;;;;;;10.75;10.00;;;;;12.79;66.13;100154.69;5081080;27;45236;-62
2021/10/31 02:38:08;;;;;;;;;11.75;11.75;;;;;12.77;65.73;100146.00;5081275;27;45185;-62
2021/10/31 02:40:36;;;;;;;;;9.25;8.75;;;;;12.76;66.20;100150.38;5081288;27;45516;-62
2021/10/31 02:43:05;;;;;;;;;12.00;10.50;;;;;12.74;65.83;100143.44;5081038;27;45435;-62
2021/10/31 02:45:30;;;;;;;;;9.25;8.50;;;;;12.73;65.93;100139.97;5076195;28;45210;-62
2021/10/31 02:48:06;;;;;;;;;11.25;11.00;;;;;12.73;65.90;100139.06;5092475;27;45257;-65
2021/10/31 02:50:37;;;;;;;;;12.25;11.75;;;;;12.70;65.90;100133.91;5082044;27;45278;-62
2021/10/31 02:53:11;;;;;;;;;12.00;10.75;;;;;12.67;65.97;100127.81;5081132;27;45353;-62
2021/10/31 02:55:47;;;;;;;;;11.50;9.75;;;;;12.66;65.89;100120.81;5080983;27;45493;-62
2021/10/31 02:58:33;;;;;;;;;11.25;9.75;;;;;12.64;66.05;100116.50;5080815;27;45325;-62
2021/10/31 03:01:01;;;;;;;;;4.75;4.00;;;;;12.61;66.05;100111.34;5080972;27;45340;-62
2021/10/31 03:03:31;;;;;;;;;11.00;10.50;;;;;12.55;65.81;100109.78;5080677;28;45188;-62
2021/10/31 03:05:57;;;;;;;;;14.25;13.50;;;;;12.55;65.97;100115.03;5080817;27;46412;-62
2021/10/31 03:08:25;;;;;;;;;11.00;11.00;;;;;12.50;66.24;100120.47;5079946;27;45340;-62
2021/10/31 03:10:53;;;;;;;;;12.25;10.75;;;;;12.47;65.99;100112.66;5081029;27;45230;-62
2021/10/31 03:13:19;;;;;;;;;12.00;10.00;;;;;12.45;65.96;100105.72;5080428;27;45263;-62
2021/10/31 03:15:44;;;;;;;;;12.25;11.50;;;;;12.44;65.93;100096.06;5080449;27;46401;-62
2021/10/31 03:18:10;;;;;;;;;13.75;13.75;;;;;12.41;66.07;100094.41;5080403;27;45290;-62
2021/10/31 03:20:35;;;;;;;;;13.00;12.50;;;;;12.39;66.02;100095.38;5080845;27;45400;-62
2021/10/31 03:23:00;;;;;;;;;17.25;14.50;;;;;12.38;66.27;100083.09;5080389;27;45454;-63
2021/10/31 03:25:26;;;;;;;;;12.50;11.75;;;;;12.35;66.16;100078.78;5088450;27;45264;-62
2021/10/31 03:27:52;;;;;;;;;14.00;12.25;;;;;12.32;65.70;100071.84;5080042;27;45330;-62
2021/10/31 03:30:18;;;;;;;;;12.75;12.75;;;;;12.30;66.19;100081.59;5080487;27;45313;-62
2021/10/31 03:32:44;;;;;;;;;14.50;13.25;;;;;12.26;66.09;100084.38;5080333;27;45464;-62
2021/10/31 03:35:09;;;;;;;;;15.25;13.75;;;;;12.22;66.31;100086.22;5080395;27;46007;-62
2021/10/31 03:37:35;;;;;;;;;12.75;12.75;;;;;12.24;66.02;100087.06;5080315;27;45201;-62
2021/10/31 03:40:00;;;;;;;;;13.50;12.00;;;;;12.24;66.39;100078.28;5080592;27;45289;-62
2021/10/31 03:42:26;;;;;;;;;11.75;10.50;;;;;12.22;66.24;100073.06;5078827;27;45202;-62
2021/10/31 03:44:52;;;;;;;;;11.75;11.50;;;;;12.21;66.29;100073.13;5080095;27;45333;-62
2021/10/31 03:47:18;;;;;;;;;12.00;11.50;;;;;12.18;66.58;100068.81;5084571;27;45309;-62
2021/10/31 03:49:44;;;;;;;;;11.75;10.00;;;;;12.18;66.29;100064.38;5087890;27;45253;-62
2021/10/31 03:52:10;;;;;;;;;13.50;11.00;;;;;12.19;66.53;100063.47;5080210;27;45621;-62
2021/10/31 03:54:36;;;;;;;;;13.25;12.50;;;;;12.19;66.55;100063.47;5080199;27;46424;-62
2021/10/31 03:57:02;;;;;;;;;14.00;12.25;;;;;12.21;66.50;100066.06;5080018;27;45259;-62
2021/10/31 03:59:27;;;;;;;;;8.75;8.75;;;;;12.22;66.55;100067.78;5080085;27;45391;-62
2021/10/31 04:01:52;;;;;;;;;10.25;10.25;;;;;12.23;66.40;100055.50;5080066;27;45318;-63
2021/10/31 04:04:18;;;;;;;;;11.25;10.50;;;;;12.25;66.58;100051.03;5080066;27;45358;-62
2021/10/31 04:06:44;;;;;;;;;11.50;9.50;;;;;12.26;66.48;100052.75;5080132;27;45285;-62
2021/10/31 04:09:09;;;;;;;;;11.25;10.75;;;;;12.25;66.62;100046.63;5078895;28;45356;-62
2021/10/31 04:11:34;;;;;;;;;11.00;10.50;;;;;12.25;67.00;100037.84;5079836;27;45328;-62
2021/10/31 04:14:00;;;;;;;;;10.00;10.00;;;;;12.28;66.67;100038.63;5078358;28;47145;-62
2021/10/31 04:16:25;;;;;;;;;9.25;8.25;;;;;12.27;66.98;100017.59;5079649;27;45220;-62
2021/10/31 04:18:51;;;;;;;;;10.25;10.25;;;;;12.32;66.79;100018.31;5080003;27;45166;-62
2021/10/31 04:21:16;;;;;;;;;11.50;9.25;;;;;12.33;66.74;100010.34;5082604;27;45321;-62
2021/10/31 04:23:42;;;;;;;;;14.00;14.00;;;;;12.33;66.87;100020.03;5083257;27;45406;-62
2021/10/31 04:26:07;;;;;;;;;11.00;9.75;;;;;12.33;66.69;100012.97;5091438;27;45195;-62
2021/10/31 04:28:33;;;;;;;;;11.75;10.50;;;;;12.38;67.12;100020.75;5083511;27;45222;-62
2021/10/31 04:30:58;;;;;;;;;11.75;9.25;;;;;12.34;67.17;100017.34;5082954;27;45577;-62
2021/10/31 04:33:24;;;;;;;;;10.75;10.00;;;;;12.34;66.96;100006.81;5083308;27;46089;-62
2021/10/31 04:35:49;;;;;;;;;10.50;10.00;;;;;12.35;67.11;100010.28;5081881;27;45589;-62
2021/10/31 04:38:19;;;;;;;;;10.75;10.75;;;;;12.32;67.39;100003.34;5083531;27;45460;-62
2021/10/31 04:40:44;;;;;;;;;9.75;8.25;;;;;12.32;67.32;100011.25;5083165;27;45293;-62
2021/10/31 04:43:11;;;;;;;;;9.00;8.25;;;;;12.33;67.35;100012.97;5082740;27;45995;-62
2021/10/31 04:45:39;;;;;;;;;9.75;9.50;;;;;12.33;67.30;100010.34;5082701;27;45196;-62
2021/10/31 04:48:05;;;;;;;;;9.50;9.50;;;;;12.36;67.63;100014.66;5094455;27;45275;-62
2021/10/31 04:50:30;;;;;;;;;13.25;10.00;;;;;12.37;67.50;100008.47;5083692;27;45464;-62
2021/10/31 04:52:56;;;;;;;;;8.50;8.50;;;;;12.35;67.33;100013.81;5082966;27;45434;-62
2021/10/31 04:55:21;;;;;;;;;13.25;11.75;;;;;12.38;67.61;100002.31;5081583;27;45425;-62
2021/10/31 04:57:47;;;;;;;;;10.25;10.00;;;;;12.39;67.64;100005.78;5083312;27;45332;-62
2021/10/31 05:00:13;;;;;;;;;13.50;12.50;;;;;12.42;67.47;99989.88;5082563;27;45531;-62
2021/10/31 05:02:38;;;;;;;;;10.00;10.00;;;;;12.42;67.51;99981.97;5082818;27;46308;-62
2021/10/31 05:05:04;;;;;;;;;8.50;8.50;;;;;12.40;67.51;99963.59;5082396;27;45320;-62
2021/10/31 05:07:30;;;;;;;;;12.00;10.00;;;;;12.44;67.64;99969.59;5082976;27;45302;-62
2021/10/31 05:09:55;;;;;;;;;10.50;9.00;;;;;12.47;67.66;99964.25;5081409;28;45190;-62
2021/10/31 05:12:22;;;;;;;;;10.50;10.50;;;;;12.47;67.51;99964.25;5082528;27;45166;-62
2021/10/31 05:14:47;;;;;;;;;10.75;8.00;;;;;12.49;67.66;99960.63;5082302;27;45214;-62
2021/10/31 05:17:12;;;;;;;;;9.00;9.00;;;;;12.48;67.68;99948.38;5081287;27;45248;-63
2021/10/31 05:19:38;;;;;;;;;9.75;8.00;;;;;12.51;67.44;99945.63;5082479;27;45330;-63
2021/10/31 05:22:04;;;;;;;;;9.75;9.50;;;;;12.50;67.49;99943.91;5082675;27;46281;-63
2021/10/31 05:24:29;;;;;;;;;10.25;9.50;;;;;12.50;67.53;99938.66;5081056;27;45444;-63
2021/10/31 05:26:54;;;;;;;;;9.00;8.50;;;;;12.51;67.81;99942.13;5091356;27;45586;-63
2021/10/31 05:29:19;;;;;;;;;8.00;8.00;;;;;12.51;67.74;99928.94;5082259;27;45520;-63
2021/10/31 05:31:45;;;;;;;;;8.75;8.75;;;;;12.53;67.47;99924.50;5082093;27;45414;-62
2021/10/31 05:34:11;;;;;;;;;10.00;9.25;;;;;12.53;67.71;99919.22;5082302;27;45364;-63
2021/10/31 05:36:36;;;;;;;;;7.00;7.00;;;;;12.53;67.60;99908.69;5082402;27;45484;-62
2021/10/31 05:39:02;;;;;;;;;8.50;7.00;;;;;12.47;67.81;99903.63;5082106;27;45267;-62
2021/10/31 05:41:28;;;;;;;;;6.50;6.50;;;;;12.53;67.71;99916.59;5082520;27;45484;-62
2021/10/31 05:43:53;;;;;;;;;7.50;5.50;;;;;12.51;67.64;99910.50;5081608;27;45542;-62
2021/10/31 05:46:19;;;;;;;;;6.50;6.50;;;;;12.49;67.87;99905.28;5082381;27;45333;-62
2021/10/31 05:48:44;;;;;;;;;5.00;5.00;;;;;12.51;67.76;99898.22;5094588;27;45354;-62
2021/10/31 05:51:09;;;;;;;;;6.25;6.00;;;;;12.49;68.12;99900.03;5082372;27;45336;-62
2021/10/31 05:53:35;;;;;;;;;4.25;4.25;;;;;12.48;67.91;99892.19;5082050;27;45249;-62
2021/10/31 05:56:00;;;;;;;;;5.50;5.50;;;;;12.45;68.13;99898.44;5082104;27;45166;-62
2021/10/31 05:58:26;;;;;;;;;6.50;6.50;;;;;12.47;68.16;99891.31;5081753;27;45470;-62
2021/10/31 06:00:52;;;;;;;;;7.50;7.00;;;;;12.47;68.00;99890.47;5081737;27;45204;-63
2021/10/31 06:03:18;;;;;;;;;11.00;6.75;;;;;12.50;67.84;99904.38;5081720;27;45238;-62
2021/10/31 06:05:46;;;;;;;;;7.50;6.75;;;;;12.51;68.12;99903.47;5081918;27;45277;-63
2021/10/31 06:08:14;;;;;;;;;6.75;5.50;;;;;12.54;67.96;99893.72;5081617;27;45540;-62
2021/10/31 06:10:40;;;;;;;;;6.00;6.00;;;;;12.54;68.21;99891.97;5081758;27;46523;-63
2021/10/31 06:13:06;;;;;;;;;7.25;7.00;;;;;12.51;68.52;99870.97;5081386;27;45289;-63
2021/10/31 06:15:31;;;;;;;;;7.75;6.50;;;;;12.46;68.54;99862.38;5081501;27;45186;-62
2021/10/31 06:17:57;;;;;;;;;6.00;6.00;;;;;12.53;68.29;99869.16;5081360;27;45355;-62
2021/10/31 06:20:22;;;;;;;;;6.50;6.50;;;;;12.52;68.55;99849.84;5081906;27;46367;-62
2021/10/31 06:22:48;;;;;;;;;5.50;3.00;;;;;12.52;68.41;99851.63;5081548;27;45251;-62
2021/10/31 06:25:13;;;;;;;;;8.25;5.75;;;;;12.52;68.48;99863.00;5087656;27;45263;-62
2021/10/31 06:27:39;;;;;;;;;7.50;5.25;;;;;12.51;68.88;99857.78;5083792;27;45256;-63
2021/10/31 06:30:05;;;;;;;;;6.00;6.00;;;;;12.55;68.65;99872.56;5079986;28;48065;-62
2021/10/31 06:32:31;;;;;;;;;4.00;4.00;;;;;12.50;68.57;99856.06;5081193;27;45392;-62
2021/10/31 06:34:56;;;;;;;;;7.00;4.00;;;;;12.53;68.67;99858.63;5080102;28;45471;-62
2021/10/31 06:37:22;;;;;;;;;5.00;5.00;;;;;12.53;68.77;99853.34;5081218;27;45322;-62
2021/10/31 06:39:47;;;;;;;;;5.00;5.00;;;;;12.50;68.60;99848.16;5081362;27;45354;-62
2021/10/31 06:42:13;;;;;;;;;5.00;5.00;;;;;12.53;68.63;99850.72;5080351;27;45421;-62
2021/10/31 06:44:38;;;;;;;;;5.50;5.50;;;;;12.54;68.54;99843.66;5081272;27;45433;-62
2021/10/31 06:47:04;;;;;;;;;6.25;4.75;;;;;12.54;68.59;99843.66;5084991;27;45483;-62
2021/10/31 06:49:29;;;;;;;;;5.50;5.50;;;;;12.55;68.84;99832.19;5090658;27;46178;-63
2021/10/31 06:51:55;;;;;;;;;6.25;6.00;;;;;12.55;68.62;99825.13;5081103;27;45363;-63
2021/10/31 06:54:20;;;;;;;;;6.25;6.00;;;;;12.57;68.54;99828.59;5081219;27;45320;-63
2021/10/31 06:56:46;;;;;;;;;5.25;5.00;;;;;12.58;68.85;99834.72;5079575;28;45625;-63
2021/10/31 06:59:11;;;;;;;;;8.50;6.00;;;;;12.60;68.63;99833.75;5080748;27;45300;-63
2021/10/31 07:01:36;;;;;;;;;7.00;7.00;;;;;12.56;69.19;99831.28;5080844;27;45254;-63
2021/10/31 07:04:03;;;;;;;;;8.25;6.00;;;;;12.62;69.03;99836.34;5081164;27;45228;-63
2021/10/31 07:06:28;;;;;;;;;6.75;5.75;;;;;12.63;68.80;99833.63;5079836;27;45453;-62
2021/10/31 07:08:54;;;;;;;;;6.75;5.75;;;;;12.64;68.68;99822.19;5080940;27;45363;-62
2021/10/31 07:11:19;;;;;;;;;6.00;5.25;;;;;12.64;68.63;99816.91;5080828;27;45363;-63
2021/10/31 07:13:44;;;;;;;;;10.00;9.25;;;;;12.67;68.89;99805.38;5079398;28;45178;-62
2021/10/31 07:16:10;;;;;;;;;7.00;6.00;;;;;12.71;68.55;99793.81;5080528;28;45409;-62
2021/10/31 07:18:35;;;;;;;;;6.50;6.50;;;;;12.70;68.91;99781.53;5079416;28;46830;-62
2021/10/31 07:21:01;;;;;;;;;4.00;4.00;;;;;12.73;69.08;99794.63;5080628;27;45470;-62
2021/10/31 07:23:26;;;;;;;;;4.75;4.75;;;;;12.74;68.54;99793.69;5080749;28;45414;-62
2021/10/31 07:25:52;;;;;;;;;5.50;5.50;;;;;12.76;68.52;99799.75;5088405;27;45440;-62
2021/10/31 07:28:18;;;;;;;;;5.25;5.00;;;;;12.76;68.57;99789.22;5080467;27;46304;-62
2021/10/31 07:30:43;;;;;;;;;7.00;5.75;;;;;12.80;68.55;99793.47;5080255;27;45349;-62
2021/10/31 07:33:08;;;;;;;;;7.00;6.00;;;;;12.82;68.27;99796.88;5080747;27;45240;-62
2021/10/31 07:35:34;;;;;;;;;4.50;4.00;;;;;12.84;68.61;99786.28;5080367;27;45512;-62
2021/10/31 07:38:00;;;;;;;;;8.25;6.00;;;;;12.82;68.44;99764.41;5080417;27;46076;-62
2021/10/31 07:40:26;;;;;;;;;6.50;6.00;;;;;12.88;68.17;99785.25;5080504;27;45256;-62
2021/10/31 07:42:51;;;;;;;;;5.00;5.00;;;;;12.92;68.62;99775.47;5080830;27;45248;-62
2021/10/31 07:45:17;;;;;;;;;6.50;6.00;;;;;12.94;68.34;99771.84;5079823;27;45379;-62
2021/10/31 07:47:43;;;;;;;;;6.75;5.25;;;;;12.97;68.52;99758.50;5089802;27;47065;-62
2021/10/31 07:50:09;;;;;;;;;9.75;7.00;;;;;12.98;68.51;99760.25;5084338;27;45314;-62
2021/10/31 07:52:35;;;;;;;;;5.00;5.00;;;;;13.01;68.20;99773.28;5080535;28;45278;-62
2021/10/31 07:55:03;;;;;;;;;6.75;5.50;;;;;13.01;68.26;99768.00;5079930;28;45280;-62
2021/10/31 07:57:30;;;;;;;;;7.75;6.00;;;;;13.03;68.23;99772.38;5080186;27;47644;-62
2021/10/31 07:59:56;;;;;;;;;9.00;7.75;;;;;13.08;68.06;99767.78;5079825;27;45314;-62
2021/10/31 08:02:21;;;;;;;;;7.00;7.00;;;;;13.07;68.12;99760.78;5080214;27;45296;-62
2021/10/31 08:04:47;;;;;;;;;7.75;5.50;;;;;13.13;68.14;99763.16;5079989;27;45145;-62
2021/10/31 08:07:13;;;;;;;;;7.25;5.00;;;;;13.15;68.27;99751.63;5080018;27;46597;-63
2021/10/31 08:09:39;;;;;;;;;7.75;7.00;;;;;13.20;68.40;99754.09;5079965;27;45433;-62
2021/10/31 08:12:05;;;;;;;;;7.25;6.25;;;;;13.22;67.88;99730.28;5080044;27;45249;-62
2021/10/31 08:14:30;;;;;;;;;7.00;7.00;;;;;13.22;68.13;99720.59;5078332;27;45328;-63
2021/10/31 08:16:56;;;;;;;;;6.50;5.25;;;;;13.28;68.48;99725.63;5079764;27;46411;-62
2021/10/31 08:19:24;;;;;;;;;6.25;6.25;;;;;13.32;68.50;99731.66;5079854;27;45436;-62
2021/10/31 08:21:52;;;;;;;;;8.75;6.75;;;;;13.35;68.26;99733.28;5080142;27;45331;-61
2021/10/31 08:24:17;;;;;;;;;8.25;7.00;;;;;13.39;68.04;99741.03;5078479;28;45749;-63
2021/10/31 08:26:43;;;;;;;;;6.00;6.00;;;;;13.41;68.19;99727.75;5088712;27;45288;-63
2021/10/31 08:29:11;;;;;;;;;9.00;8.50;;;;;13.46;68.27;99728.44;5078054;27;45267;-63
2021/10/31 08:31:40;;;;;;;;;8.00;6.50;;;;;13.48;68.36;99716.91;5080056;27;45276;-62
2021/10/31 08:34:06;;;;;;;;;6.50;5.25;;;;;13.53;68.42;99715.84;5079602;27;45343;-63
2021/10/31 08:36:31;;;;;;;;;6.25;6.25;;;;;13.55;68.56;99706.94;5079731;28;46314;-63
2021/10/31 08:38:58;;;;;;;;;6.00;6.00;;;;;13.59;68.32;99703.22;5079733;27;45167;-63
2021/10/31 08:41:26;;;;;;;;;5.75;5.75;;;;;13.63;68.53;99707.47;5079963;27;45286;-63
2021/10/31 08:43:53;;;;;;;;;7.00;7.00;;;;;13.68;68.00;99707.25;5079112;27;45402;-63
2021/10/31 08:46:19;;;;;;;;;5.75;5.75;;;;;13.69;68.41;99697.56;5079437;27;45441;-62
2021/10/31 08:48:45;;;;;;;;;7.00;6.50;;;;;13.74;68.28;99683.22;5093281;27;45412;-63
2021/10/31 08:51:11;;;;;;;;;7.50;6.00;;;;;13.77;68.44;99675.19;5079728;27;45278;-63
2021/10/31 08:53:37;;;;;;;;;8.75;7.50;;;;;13.84;68.54;99674.91;5079367;27;45313;-62
2021/10/31 08:56:04;;;;;;;;;11.00;9.00;;;;;13.88;68.22;99669.41;5079455;27;46144;-62
2021/10/31 08:58:29;;;;;;;;;8.00;7.00;;;;;13.91;68.64;99661.38;5079203;27;45468;-63
2021/10/31 09:00:55;;;;;;;;;8.25;8.25;;;;;13.96;68.55;99647.94;5079390;27;45280;-62
2021/10/31 09:03:20;;;;;;;;;8.75;8.75;;;;;14.02;68.66;99646.81;5079445;27;45556;-63
2021/10/31 09:05:45;;;;;;;;;8.25;7.25;;;;;14.08;68.04;99646.53;5079943;28;46027;-62
2021/10/31 09:08:11;;;;;;;;;6.75;6.75;;;;;14.12;68.53;99630.47;5082785;27;45327;-63
2021/10/31 09:10:37;;;;;;;;;7.00;7.00;;;;;14.19;68.57;99633.69;5083026;27;45481;-63
2021/10/31 09:13:02;;;;;;;;;8.50;8.50;;;;;14.25;68.32;99629.88;5082577;27;45520;-62
2021/10/31 09:15:29;;;;;;;;;7.00;7.00;;;;;14.31;68.44;99632.22;5082346;27;47189;-62
2021/10/31 09:17:59;;;;;;;;;9.50;8.00;;;;;14.37;68.19;99621.38;5082556;27;45260;-62
2021/10/31 09:20:25;;;;;;;;;8.50;8.50;;;;;14.40;68.32;99604.50;5082851;27;45246;-62
2021/10/31 09:22:55;;;;;;;;;7.75;6.00;;;;;14.49;68.54;99597.91;5082413;27;45410;-62
2021/10/31 09:25:22;;;;;;;;;6.75;6.75;;;;;14.54;68.49;99590.63;5089463;27;46114;-63
2021/10/31 09:27:48;;;;;;;;;5.50;5.50;;;;;14.61;68.78;99584.09;5084114;27;45294;-62
2021/10/31 09:30:14;;;;;;;;;6.00;6.00;;;;;14.69;68.54;99567.91;5082366;27;45234;-62
2021/10/31 09:32:45;;;;;;;;;6.00;5.75;;;;;14.77;68.26;99573.66;5081104;27;45310;-62
2021/10/31 09:35:11;;;;;;;;;7.75;6.00;;;;;14.84;68.83;99574.19;5080534;28;47810;-62
2021/10/31 09:37:36;;;;;;;;;5.50;5.50;;;;;14.94;68.79;99580.72;5082189;27;45247;-63
2021/10/31 09:40:04;;;;;;;;;5.50;5.50;;;;;15.03;68.77;99582.06;5082599;27;45312;-63
2021/10/31 09:42:29;;;;;;;;;3.00;3.00;;;;;15.12;68.56;99565.72;5080853;27;45487;-63
2021/10/31 09:44:54;;;;;;;;;6.00;5.00;;;;;15.16;68.32;99564.63;5080437;27;48048;-63
2021/10/31 09:47:21;;;;;;;;;3.00;3.00;;;;;15.33;68.29;99555.78;5088418;27;45261;-63
2021/10/31 09:49:47;;;;;;;;;4.00;4.00;;;;;15.43;68.97;99542.94;5089434;27;45352;-63
2021/10/31 09:52:12;;;;;;;;;5.50;5.00;;;;;15.54;68.32;99540.56;5082170;27;45298;-63
2021/10/31 09:54:37;;;;;;;;;2.50;2.50;;;;;15.64;68.29;99522.38;5082314;27;46203;-63
2021/10/31 09:57:03;;;;;;;;;4.25;4.25;;;;;15.76;68.60;99519.06;5081836;27;45283;-63
2021/10/31 09:59:29;;;;;;;;;4.00;3.00;;;;;15.83;68.44;99511.66;5082155;27;45307;-63
2021/10/31 10:04:23;;;;;;;;;2.75;2.75;;;;;16.03;68.30;99525.59;5081742;27;45224;-63
2021/10/31 10:06:51;;;;;;;;;1.25;1.25;;;;;16.09;68.19;99512.00;5081774;27;45204;-63
2021/10/31 10:09:16;;;;;;;;;3.00;1.75;;;;;16.15;68.26;99505.50;5082021;27;45251;-63
2021/10/31 10:11:44;;;;;;;;;2.25;1.00;;;;;16.25;67.92;99504.88;5081822;27;45259;-63
2021/10/31 10:14:25;;;;;;;;;3.00;2.75;;;;;16.36;67.99;99500.75;5080347;28;46203;-64
2021/10/31 10:17:04;;;;;;;;;2.00;2.00;;;;;16.48;67.71;99492.09;5080934;27;45425;-63
2021/10/31 10:19:31;;;;;;;;;1.50;1.50;;;;;16.55;68.03;99490.78;5081335;27;45283;-63
2021/10/31 10:22:05;;;;;;;;;3.00;3.00;;;;;16.64;67.67;99481.44;5081634;27;45182;-63
2021/10/31 10:24:32;;;;;;;;;3.00;2.00;;;;;16.74;67.70;99495.84;5081464;27;45660;-63
2021/10/31 10:27:01;;;;;;;;;4.00;1.75;;;;;16.81;67.67;99488.38;5089282;27;45153;-62
2021/10/31 10:29:30;;;;;;;;;1.33;1.33;;;;;16.90;67.68;99469.28;5080000;27;45348;-64
2021/10/31 10:32:02;;;;;;;;;1.25;1.25;;;;;17.01;67.34;99465.13;5080232;27;45343;-64
2021/10/31 10:34:42;;;;;;;;;1.25;1.25;;;;;17.11;67.61;99463.63;5081418;27;45264;-63
2021/10/31 10:37:18;;;;;;;;;1.25;1.25;;;;;17.22;67.29;99457.66;5081253;27;45286;-64
2021/10/31 10:40:09;;;;;;;;;2.00;1.00;;;;;17.34;67.21;99450.72;5080342;27;45372;-64
2021/10/31 10:42:43;;;;;;;;;1.75;1.00;;;;;17.47;67.44;99440.16;5081400;27;45414;-64
2021/10/31 10:45:11;;;;;;;;;2.00;2.00;;;;;17.61;67.18;99426.00;5080722;27;45343;-63
2021/10/31 10:47:57;;;;;;;;;2.00;2.00;;;;;17.69;67.21;99429.84;5088619;27;45868;-63
2021/10/31 10:50:37;;;;;;;;;5.00;2.00;;;;;17.82;66.69;99429.94;5083442;27;45239;-63
2021/10/31 10:53:04;;;;;;;;;2.67;1.00;;;;;17.99;66.92;99430.66;5081079;27;45383;-63
2021/10/31 10:55:34;;;;;;;;;2.00;2.00;;;;;18.05;67.05;99422.28;5080950;27;45302;-63
2021/10/31 10:58:08;;;;;;;;;2.33;1.00;;;;;18.17;66.67;99426.75;5080917;28;45411;-63
2021/10/31 11:00:37;;;;;;;;;3.00;3.00;;;;;18.36;66.88;99428.19;5081158;27;45460;-63
2021/10/31 11:03:06;;;;;;;;;4.00;2.67;;;;;18.48;66.54;99438.00;5080918;27;45616;-63
2021/10/31 11:05:37;;;;;;;;;2.00;2.00;;;;;18.62;66.49;99425.59;5080862;27;45177;-64
2021/10/31 11:08:09;;;;;;;;;1.67;1.67;;;;;18.71;66.18;99438.25;5080770;27;45377;-63
2021/10/31 11:10:35;;;;;;;;;2.00;2.00;;;;;18.81;65.87;99425.16;5081266;28;45312;-63
2021/10/31 11:13:05;;;;;;;;;1.00;1.00;;;;;18.90;66.17;99439.63;5079174;28;45865;-63
2021/10/31 11:15:33;;;;;;;;;1.00;1.00;;;;;18.98;66.38;99416.00;5080608;27;46320;-63
2021/10/31 11:18:04;;;;;;;;;2.33;2.33;;;;;19.07;66.07;99426.03;5080531;27;45417;-63
2021/10/31 11:20:34;;;;;;;;;1.00;1.00;;;;;19.19;65.79;99413.66;5080761;27;45380;-63
2021/10/31 11:23:06;;;;;;;;;2.00;2.00;;;;;19.33;65.62;99439.28;5080571;27;45168;-63
2021/10/31 11:25:34;;;;;;;;;2.00;2.00;;;;;19.37;66.29;99407.97;5088891;27;46242;-63
2021/10/31 11:28:03;;;;;;;;;1.00;1.00;;;;;19.42;65.96;99395.16;5080560;27;45583;-63
2021/10/31 11:30:31;;;;;;;;;2.67;1.33;;;;;19.51;65.88;99394.50;5080032;27;45399;-63